Time,TemperatureF,DewpointF,PressureIn,WindDirection,WindDirectionDegrees,WindSpeedMPH,WindSpeedGustMPH,Humidity,HourlyPrecipIn,Conditions,Clouds,dailyrainin,SoftwareType,DateUTC
2013-06-24 00:00:00,61.3,60.7,29.61,South,173,1.0,3.0,98,0.00,,,0.00,WeatherDisplay:10.37,2013-06-24 07:00:00,
2013-06-24 00:05:00,61.2,60.6,29.61,South,169,1.0,2.0,98,0.00,CLR,,0.00,WeatherDisplay:10.37,2013-06-24 07:05:00,
2013-06-24 00:10:00,61.2,60.6,29.61,SSE,163,0.0,2.0,98,0.00,CLR,,0.00,WeatherDisplay:10.37,2013-06-24 07:10:00,
2013-06-24 00:20:00,61.3,60.7,29.61,SSE,149,0.0,4.0,98,0.00,CLR,,0.00,WeatherDisplay:10.37,2013-06-24 07:20:00,
2013-06-24 00:30:00,61.3,60.4,29.61,SSE,154,0.0,2.0,97,0.00,CLR,,0.00,WeatherDisplay:10.37,2013-06-24 07:30:00,
2013-06-24 00:40:00,61.4,60.5,29.61,South,170,1.0,3.0,97,0.00,CLR,,0.00,WeatherDisplay:10.37,2013-06-24 07:40:00,
2013-06-24 00:50:00,61.5,60.6,29.61,SW,231,0.0,3.0,97,0.00,CLR,,0.00,WeatherDisplay:10.37,2013-06-24 07:50:00,
2013-06-24 01:15:00,61.4,60.2,29.61,SE,140,2.0,7.0,96,0.00,CLR,,0.00,WeatherDisplay:10.37,2013-06-24 08:15:00,
2013-06-24 01:20:00,61.4,60.0,29.61,South,171,0.0,4.0,95,0.00,CLR,,0.00,WeatherDisplay:10.37,2013-06-24 08:20:00,
2013-06-24 01:30:00,61.3,60.2,29.61,SSW,201,0.0,1.0,96,0.00,CLR,,0.00,WeatherDisplay:10.37,2013-06-24 08:30:00,
2013-06-24 01:45:00,61.0,59.8,29.60,South,187,0.0,0.0,96,0.00,CLR,,0.00,WeatherDisplay:10.37,2013-06-24 08:45:00,
2013-06-24 01:50:00,60.8,59.7,29.60,South,187,0.0,0.0,96,0.00,CLR,,0.00,WeatherDisplay:10.37,2013-06-24 08:50:00,
2013-06-24 02:00:00,60.6,59.5,29.60,SSW,211,0.0,0.0,96,0.00,CLR,,0.00,WeatherDisplay:10.37,2013-06-24 09:00:00,
2013-06-24 02:10:00,60.5,59.6,29.60,WSW,248,0.0,0.0,97,0.00,CLR,,0.00,WeatherDisplay:10.37,2013-06-24 09:10:00,
2013-06-24 02:25:00,60.2,59.3,29.60,WNW,294,0.0,0.0,97,0.00,CLR,,0.00,WeatherDisplay:10.37,2013-06-24 09:25:00,
2013-06-24 02:30:00,60.2,59.3,29.60,West,279,0.0,0.0,97,0.00,CLR,,0.00,WeatherDisplay:10.37,2013-06-24 09:30:00,
2013-06-24 02:40:00,60.1,59.2,29.60,SW,225,0.0,0.0,97,0.01,,,0.01,WeatherDisplay:10.37,2013-06-24 09:40:00,
2013-06-24 02:55:00,60.1,59.2,29.60,South,172,0.0,0.0,97,0.00,,,0.01,WeatherDisplay:10.37,2013-06-24 09:55:00,
2013-06-24 03:00:00,60.1,59.2,29.60,South,184,0.0,0.0,97,0.01,,,0.02,WeatherDisplay:10.37,2013-06-24 10:00:00,
2013-06-24 03:05:00,60.0,59.2,29.59,South,174,0.0,0.0,97,0.00,,,0.02,WeatherDisplay:10.37,2013-06-24 10:05:00,
2013-06-24 03:10:00,60.0,59.1,29.59,West,266,0.0,1.0,97,0.00,,,0.02,WeatherDisplay:10.37,2013-06-24 10:10:00,
2013-06-24 03:20:00,59.9,59.0,29.59,WNW,293,0.0,0.0,97,0.00,,,0.02,WeatherDisplay:10.37,2013-06-24 10:20:00,
2013-06-24 03:30:00,59.7,59.1,29.58,WNW,293,0.0,0.0,98,0.00,,,0.02,WeatherDisplay:10.37,2013-06-24 10:30:00,
2013-06-24 03:40:00,59.7,59.1,29.58,WNW,293,0.0,0.0,98,0.00,,,0.02,WeatherDisplay:10.37,2013-06-24 10:40:00,
2013-06-24 03:55:00,59.5,58.9,29.58,WNW,294,0.0,0.0,98,0.00,,,0.02,WeatherDisplay:10.37,2013-06-24 10:55:00,
2013-06-24 04:00:00,59.4,58.9,29.58,WNW,293,0.0,0.0,98,0.00,CLR,,0.02,WeatherDisplay:10.37,2013-06-24 11:00:00,
2013-06-24 04:05:00,59.3,58.7,29.58,WNW,293,0.0,0.0,98,0.00,CLR,,0.02,WeatherDisplay:10.37,2013-06-24 11:05:00,
2013-06-24 04:10:00,59.1,58.6,29.58,WNW,293,0.0,0.0,98,0.00,CLR,,0.02,WeatherDisplay:10.37,2013-06-24 11:10:00,
2013-06-24 04:25:00,58.6,58.0,29.58,WNW,293,0.0,0.0,98,0.00,CLR,,0.02,WeatherDisplay:10.37,2013-06-24 11:25:00,
2013-06-24 04:35:00,58.4,57.9,29.59,WNW,293,0.0,0.0,98,0.00,CLR,,0.02,WeatherDisplay:10.37,2013-06-24 11:35:00,
2013-06-24 04:40:00,58.4,57.8,29.59,WNW,293,0.0,0.0,98,0.00,CLR,,0.02,WeatherDisplay:10.37,2013-06-24 11:40:00,
2013-06-24 04:50:00,58.4,58.1,29.59,WNW,294,0.0,0.0,99,0.00,CLR,,0.02,WeatherDisplay:10.37,2013-06-24 11:50:00,
2013-06-24 05:00:00,58.6,58.3,29.59,WNW,293,0.0,0.0,99,0.00,CLR,,0.02,WeatherDisplay:10.37,2013-06-24 12:00:00,
2013-06-24 05:05:00,58.6,58.3,29.59,WNW,293,0.0,0.0,99,0.00,CLR,,0.02,WeatherDisplay:10.37,2013-06-24 12:05:00,
2013-06-24 05:10:00,58.5,58.2,29.58,WNW,293,0.0,0.0,99,0.00,,,0.02,WeatherDisplay:10.37,2013-06-24 12:10:00,
2013-06-24 05:25:00,58.6,58.3,29.59,WNW,294,0.0,0.0,99,0.00,,,0.02,WeatherDisplay:10.37,2013-06-24 12:25:00,
2013-06-24 05:30:00,58.5,58.2,29.59,WNW,293,0.0,0.0,99,0.00,,,0.02,WeatherDisplay:10.37,2013-06-24 12:30:00,
2013-06-24 05:45:00,58.3,58.0,29.59,WNW,291,0.0,0.0,99,0.00,,,0.02,WeatherDisplay:10.37,2013-06-24 12:45:00,
2013-06-24 05:50:00,58.2,57.9,29.59,WNW,291,0.0,0.0,99,0.00,,,0.02,WeatherDisplay:10.37,2013-06-24 12:50:00,
2013-06-24 06:00:00,58.4,58.1,29.59,WNW,299,0.0,0.0,99,0.00,,,0.02,WeatherDisplay:10.37,2013-06-24 13:00:00,
2013-06-24 06:10:00,58.5,58.2,29.59,NNE,30,0.0,0.0,99,0.00,,,0.02,WeatherDisplay:10.37,2013-06-24 13:10:00,
2013-06-24 06:20:00,58.7,58.4,29.60,ENE,61,0.0,0.0,99,0.00,,,0.02,WeatherDisplay:10.37,2013-06-24 13:20:00,
2013-06-24 06:35:00,59.0,59.0,29.62,SW,221,0.0,1.0,100,0.08,RA,,0.13,WeatherDisplay:10.37,2013-06-24 13:35:00,
2013-06-24 06:40:00,59.0,58.7,29.62,SW,217,0.0,1.0,99,0.04,RA,,0.17,WeatherDisplay:10.37,2013-06-24 13:40:00,
2013-06-24 06:50:00,58.4,57.9,29.62,South,182,2.0,4.0,98,0.02,RA,,0.20,WeatherDisplay:10.37,2013-06-24 13:50:00,
2013-06-24 07:00:00,57.9,57.3,29.63,South,175,1.0,4.0,98,0.02,RA,,0.24,WeatherDisplay:10.37,2013-06-24 14:00:00,
2013-06-24 07:05:00,57.6,57.1,29.63,South,178,0.0,5.0,98,0.01,RA,,0.25,WeatherDisplay:10.37,2013-06-24 14:05:00,
2013-06-24 07:10:00,57.5,57.0,29.63,SE,138,2.0,5.0,98,0.01,RA,,0.26,WeatherDisplay:10.37,2013-06-24 14:10:00,
2013-06-24 07:20:00,57.3,56.5,29.64,SSW,192,2.0,6.0,97,0.01,RA,,0.27,WeatherDisplay:10.37,2013-06-24 14:20:00,
2013-06-24 07:30:00,57.3,56.4,29.64,SSE,153,2.0,4.0,97,0.00,RA,,0.27,WeatherDisplay:10.37,2013-06-24 14:30:00,
2013-06-24 07:40:00,57.4,56.5,29.64,ESE,113,3.0,7.0,97,0.00,RA,,0.27,WeatherDisplay:10.37,2013-06-24 14:40:00,
2013-06-24 07:55:00,57.2,56.1,29.64,South,171,2.0,5.0,96,0.00,RA,,0.28,WeatherDisplay:10.37,2013-06-24 14:55:00,
2013-06-24 08:00:00,57.1,56.0,29.65,SSE,155,1.0,4.0,96,0.00,RA,,0.28,WeatherDisplay:10.37,2013-06-24 15:00:00,
2013-06-24 08:05:00,57.1,56.0,29.65,SSE,163,2.0,4.0,96,0.00,RA,,0.28,WeatherDisplay:10.37,2013-06-24 15:05:00,
2013-06-24 08:10:00,57.1,56.3,29.65,South,181,0.0,3.0,97,0.01,RA,,0.29,WeatherDisplay:10.37,2013-06-24 15:10:00,
2013-06-24 08:30:00,57.2,56.1,29.66,SSW,204,0.0,1.0,96,0.00,RA,,0.29,WeatherDisplay:10.37,2013-06-24 15:30:00,
2013-06-24 08:40:00,57.5,56.6,29.66,East,90,1.0,4.0,97,0.00,RA,,0.29,WeatherDisplay:10.37,2013-06-24 15:40:00,
2013-06-24 08:50:00,57.7,56.9,29.66,SSE,152,1.0,2.0,97,0.00,RA,,0.29,WeatherDisplay:10.37,2013-06-24 15:50:00,
2013-06-24 09:00:00,57.7,56.9,29.67,ESE,118,0.0,2.0,97,0.00,RA,,0.29,WeatherDisplay:10.37,2013-06-24 16:00:00,
2013-06-24 09:05:00,57.7,56.5,29.67,ENE,73,1.0,3.0,96,0.00,RA,,0.29,WeatherDisplay:10.37,2013-06-24 16:05:00,
2013-06-24 09:20:00,57.8,57.0,29.67,SW,219,0.0,0.0,97,0.00,RA,,0.30,WeatherDisplay:10.37,2013-06-24 16:20:00,
2013-06-24 09:35:00,57.8,57.0,29.68,SSW,207,0.0,0.0,97,0.00,RA,,0.30,WeatherDisplay:10.37,2013-06-24 16:35:00,
2013-06-24 09:40:00,57.9,57.1,29.68,SSW,196,0.0,0.0,97,0.00,RA,,0.30,WeatherDisplay:10.37,2013-06-24 16:40:00,
2013-06-24 09:50:00,58.1,57.0,29.68,ESE,117,0.0,1.0,96,0.00,RA,,0.30,WeatherDisplay:10.37,2013-06-24 16:50:00,
2013-06-24 10:00:00,58.5,57.7,29.68,SE,138,0.0,0.0,97,0.00,RA,,0.30,WeatherDisplay:10.37,2013-06-24 17:00:00,
2013-06-24 10:20:00,59.4,57.7,29.68,South,173,1.0,3.0,94,0.00,RA,,0.30,WeatherDisplay:10.37,2013-06-24 17:20:00,
2013-06-24 10:30:00,59.5,57.7,29.68,SSE,168,0.0,0.0,94,0.00,RA,,0.30,WeatherDisplay:10.37,2013-06-24 17:30:00,
2013-06-24 10:40:00,59.4,57.1,29.68,SSE,164,0.0,1.0,92,0.00,RA,,0.30,WeatherDisplay:10.37,2013-06-24 17:40:00,
2013-06-24 11:05:00,60.6,57.7,29.68,SSW,204,0.0,0.0,90,0.00,RA,,0.30,WeatherDisplay:10.37,2013-06-24 18:05:00,
2013-06-24 11:10:00,60.9,58.3,29.68,SW,232,0.0,0.0,91,0.00,RA,,0.30,WeatherDisplay:10.37,2013-06-24 18:10:00,
2013-06-24 11:15:00,61.1,57.8,29.68,SE,144,0.0,3.0,89,0.00,RA,,0.30,WeatherDisplay:10.37,2013-06-24 18:15:00,
2013-06-24 11:25:00,61.5,58.2,29.68,SE,131,0.0,0.0,89,0.00,RA,,0.30,WeatherDisplay:10.37,2013-06-24 18:25:00,
2013-06-24 11:30:00,61.5,57.9,29.68,SW,222,0.0,0.0,88,0.00,RA,,0.30,WeatherDisplay:10.37,2013-06-24 18:30:00,
2013-06-24 11:40:00,62.0,58.4,29.68,SSW,211,0.0,3.0,88,0.00,RA,,0.30,WeatherDisplay:10.37,2013-06-24 18:40:00,
2013-06-24 11:50:00,62.4,58.2,29.68,ENE,68,0.0,1.0,86,0.00,RA,,0.30,WeatherDisplay:10.37,2013-06-24 18:50:00,
2013-06-24 11:55:00,63.0,59.0,29.68,NE,44,0.0,0.0,87,0.00,RA,,0.30,WeatherDisplay:10.37,2013-06-24 18:55:00,
2013-06-24 12:05:00,64.1,58.8,29.68,SSE,151,0.0,0.0,83,0.00,RA,,0.30,WeatherDisplay:10.37,2013-06-24 19:05:00,
2013-06-24 12:10:00,64.4,58.4,29.68,SSW,205,0.0,4.0,81,0.00,RA,,0.30,WeatherDisplay:10.37,2013-06-24 19:10:00,
2013-06-24 12:20:00,63.5,57.9,29.68,WSW,238,0.0,0.0,82,0.00,RA,,0.30,WeatherDisplay:10.37,2013-06-24 19:20:00,
2013-06-24 12:30:00,62.6,58.0,29.68,WSW,255,0.0,0.0,85,0.00,RA,,0.30,WeatherDisplay:10.37,2013-06-24 19:30:00,
2013-06-24 12:40:00,63.1,58.2,29.68,NW,322,0.0,0.0,84,0.00,RA,,0.30,WeatherDisplay:10.37,2013-06-24 19:40:00,
2013-06-24 12:50:00,63.6,58.0,29.67,West,269,0.0,3.0,82,0.00,RA,,0.30,WeatherDisplay:10.37,2013-06-24 19:50:00,
2013-06-24 13:00:00,64.6,59.6,29.67,NNW,333,0.0,0.0,84,0.00,RA,,0.30,WeatherDisplay:10.37,2013-06-24 20:00:00,
2013-06-24 13:05:00,64.4,58.8,29.67,NNW,342,0.0,0.0,82,0.00,RA,,0.30,WeatherDisplay:10.37,2013-06-24 20:05:00,
2013-06-24 13:10:00,64.2,57.5,29.67,NNW,347,0.0,0.0,79,0.00,RA,,0.30,WeatherDisplay:10.37,2013-06-24 20:10:00,
2013-06-24 13:20:00,64.5,58.2,29.67,SW,225,0.0,0.0,80,0.00,RA,,0.30,WeatherDisplay:10.37,2013-06-24 20:20:00,
2013-06-24 13:30:00,64.7,59.0,29.67,SW,235,0.0,0.0,82,0.00,RA,,0.30,WeatherDisplay:10.37,2013-06-24 20:30:00,
2013-06-24 13:45:00,63.3,60.3,29.67,SW,235,0.0,0.0,90,0.01,RA,,0.31,WeatherDisplay:10.37,2013-06-24 20:45:00,
2013-06-24 13:55:00,62.8,60.5,29.67,SW,235,0.0,0.0,92,0.00,RA,,0.31,WeatherDisplay:10.37,2013-06-24 20:55:00,
2013-06-24 14:00:00,62.7,60.3,29.67,SW,235,0.0,0.0,92,0.00,RA,,0.31,WeatherDisplay:10.37,2013-06-24 21:00:00,
2013-06-24 14:25:00,63.3,59.7,29.67,SSW,212,0.0,0.0,88,0.00,RA,,0.31,WeatherDisplay:10.37,2013-06-24 21:25:00,
2013-06-24 14:30:00,63.7,60.4,29.67,ENE,65,0.0,0.0,89,0.00,RA,,0.31,WeatherDisplay:10.37,2013-06-24 21:30:00,
2013-06-24 14:40:00,64.8,59.2,29.67,ESE,114,0.0,0.0,82,0.00,RA,,0.31,WeatherDisplay:10.37,2013-06-24 21:40:00,
2013-06-24 14:50:00,64.6,58.6,29.67,NNE,31,0.0,0.0,81,0.00,RA,,0.31,WeatherDisplay:10.37,2013-06-24 21:50:00,
2013-06-24 15:00:00,64.4,59.5,29.68,NNE,28,0.0,0.0,84,0.00,RA,,0.31,WeatherDisplay:10.37,2013-06-24 22:00:00,
2013-06-24 15:05:00,64.3,59.7,29.68,NNE,28,0.0,0.0,85,0.00,RA,,0.31,WeatherDisplay:10.37,2013-06-24 22:05:00,
2013-06-24 15:10:00,64.1,59.8,29.68,NNE,28,0.0,0.0,86,0.00,RA,,0.31,WeatherDisplay:10.37,2013-06-24 22:10:00,
2013-06-24 15:20:00,63.8,60.2,29.68,ENE,74,0.0,0.0,88,0.00,RA,,0.31,WeatherDisplay:10.37,2013-06-24 22:20:00,
2013-06-24 15:30:00,63.4,60.1,29.68,ENE,62,0.0,0.0,89,0.00,RA,,0.31,WeatherDisplay:10.37,2013-06-24 22:30:00,
2013-06-24 15:40:00,63.9,60.0,29.68,ENE,69,0.0,0.0,87,0.00,RA,,0.31,WeatherDisplay:10.37,2013-06-24 22:40:00,
2013-06-24 15:50:00,64.3,59.7,29.68,ENE,72,0.0,0.0,85,0.00,RA,,0.31,WeatherDisplay:10.37,2013-06-24 22:50:00,
2013-06-24 16:05:00,65.3,58.9,29.68,ENE,69,0.0,0.0,80,0.00,RA,,0.31,WeatherDisplay:10.37,2013-06-24 23:05:00,
2013-06-24 16:10:00,65.8,59.1,29.67,ENE,72,0.0,0.0,79,0.00,RA,,0.31,WeatherDisplay:10.37,2013-06-24 23:10:00,
2013-06-24 16:20:00,65.6,58.9,29.67,ENE,76,0.0,0.0,79,0.00,RA,,0.31,WeatherDisplay:10.37,2013-06-24 23:20:00,
2013-06-24 16:30:00,65.3,60.4,29.67,ENE,77,0.0,0.0,84,0.00,RA,,0.31,WeatherDisplay:10.37,2013-06-24 23:30:00,
2013-06-24 16:40:00,65.2,59.2,29.67,NNE,20,0.0,0.0,81,0.00,RA,,0.31,WeatherDisplay:10.37,2013-06-24 23:40:00,
2013-06-24 16:55:00,64.9,59.6,29.67,NE,53,0.0,5.0,83,0.00,RA,,0.31,WeatherDisplay:10.37,2013-06-24 23:55:00,
2013-06-24 17:00:00,65.2,60.2,29.67,NNE,17,0.0,1.0,84,0.00,RA,,0.31,WeatherDisplay:10.37,2013-06-25 00:00:00,
2013-06-24 17:10:00,65.0,60.0,29.67,NE,43,0.0,0.0,84,0.00,RA,,0.31,WeatherDisplay:10.37,2013-06-25 00:10:00,
2013-06-24 17:20:00,65.6,59.6,29.67,ENE,65,0.0,2.0,81,0.00,RA,,0.31,WeatherDisplay:10.37,2013-06-25 00:20:00,
2013-06-24 17:30:00,65.9,58.8,29.67,WSW,245,0.0,0.0,78,0.00,RA,,0.31,WeatherDisplay:10.37,2013-06-25 00:30:00,
2013-06-24 17:40:00,66.3,58.9,29.67,SW,221,0.0,0.0,77,0.00,RA,,0.31,WeatherDisplay:10.37,2013-06-25 00:40:00,
2013-06-24 17:50:00,66.4,59.4,29.67,SW,221,0.0,0.0,78,0.00,RA,,0.31,WeatherDisplay:10.37,2013-06-25 00:50:00,
2013-06-24 18:00:00,65.9,59.6,29.67,SW,221,0.0,0.0,80,0.00,RA,,0.31,WeatherDisplay:10.37,2013-06-25 01:00:00,
2013-06-24 18:05:00,65.7,60.1,29.67,SSW,212,0.0,0.0,82,0.00,RA,,0.31,WeatherDisplay:10.37,2013-06-25 01:05:00,
2013-06-24 18:15:00,64.9,59.9,29.67,SSW,195,0.0,0.0,84,0.00,RA,,0.31,WeatherDisplay:10.37,2013-06-25 01:15:00,
2013-06-24 18:20:00,64.5,59.9,29.67,SSW,196,0.0,0.0,85,0.00,RA,,0.31,WeatherDisplay:10.37,2013-06-25 01:20:00,
2013-06-24 18:30:00,63.7,59.4,29.67,SSW,197,0.0,0.0,86,0.00,RA,,0.31,WeatherDisplay:10.37,2013-06-25 01:30:00,
2013-06-24 18:40:00,62.7,59.1,29.68,South,181,0.0,0.0,88,0.01,RA,,0.32,WeatherDisplay:10.37,2013-06-25 01:40:00,
2013-06-24 18:50:00,61.9,59.2,29.68,South,172,0.0,0.0,91,0.00,RA,,0.32,WeatherDisplay:10.37,2013-06-25 01:50:00,
2013-06-24 19:00:00,60.9,58.0,29.68,ENE,59,0.0,0.0,90,0.00,RA,,0.32,WeatherDisplay:10.37,2013-06-25 02:00:00,
2013-06-24 19:05:00,60.6,58.0,29.68,NNW,348,0.0,0.0,91,0.00,RA,,0.32,WeatherDisplay:10.37,2013-06-25 02:05:00,
2013-06-24 19:10:00,60.5,57.9,29.68,NNW,348,0.0,0.0,91,0.00,RA,,0.32,WeatherDisplay:10.37,2013-06-25 02:10:00,
2013-06-24 19:20:00,60.5,58.5,29.69,ENE,72,0.0,0.0,93,0.00,RA,,0.32,WeatherDisplay:10.37,2013-06-25 02:20:00,
2013-06-24 19:30:00,60.3,58.3,29.69,East,81,0.0,0.0,93,0.00,RA,,0.32,WeatherDisplay:10.37,2013-06-25 02:30:00,
2013-06-24 19:40:00,60.1,57.5,29.69,SE,135,0.0,0.0,91,0.00,RA,,0.32,WeatherDisplay:10.37,2013-06-25 02:40:00,
2013-06-24 19:55:00,60.0,57.7,29.69,SSW,195,0.0,0.0,92,0.00,RA,,0.32,WeatherDisplay:10.37,2013-06-25 02:55:00,
2013-06-24 20:00:00,60.0,58.0,29.69,SSW,200,0.0,0.0,93,0.00,RA,,0.32,WeatherDisplay:10.37,2013-06-25 03:00:00,
2013-06-24 20:15:00,59.9,57.9,29.69,SSE,154,0.0,0.0,93,0.00,RA,,0.32,WeatherDisplay:10.37,2013-06-25 03:15:00,
2013-06-24 20:40:00,59.5,57.8,29.70,South,186,0.0,0.0,94,0.00,RA,,0.32,WeatherDisplay:10.37,2013-06-25 03:40:00,
2013-06-24 20:45:00,59.4,57.7,29.70,SW,218,0.0,0.0,94,0.00,RA,,0.32,WeatherDisplay:10.37,2013-06-25 03:45:00,
2013-06-24 20:55:00,59.3,57.6,29.70,SSW,208,0.0,0.0,94,0.00,RA,,0.32,WeatherDisplay:10.37,2013-06-25 03:55:00,
2013-06-24 21:05:00,59.2,57.8,29.70,West,280,0.0,0.0,95,0.00,RA,,0.32,WeatherDisplay:10.37,2013-06-25 04:05:00,
2013-06-24 21:10:00,59.2,57.4,29.70,WNW,303,0.0,0.0,94,0.00,RA,,0.32,WeatherDisplay:10.37,2013-06-25 04:10:00,
2013-06-24 21:20:00,59.0,57.3,29.70,West,278,0.0,0.0,94,0.00,RA,,0.32,WeatherDisplay:10.37,2013-06-25 04:20:00,
2013-06-24 21:25:00,59.0,57.3,29.70,West,261,0.0,0.0,94,0.00,RA,,0.32,WeatherDisplay:10.37,2013-06-25 04:25:00,
2013-06-24 21:30:00,58.9,57.2,29.70,West,259,0.0,0.0,94,0.00,RA,,0.32,WeatherDisplay:10.37,2013-06-25 04:30:00,
2013-06-24 21:40:00,58.8,57.4,29.70,West,259,0.0,0.0,95,0.00,RA,,0.32,WeatherDisplay:10.37,2013-06-25 04:40:00,
2013-06-24 21:50:00,58.6,57.2,29.71,West,259,0.0,0.0,95,0.00,RA,,0.32,WeatherDisplay:10.37,2013-06-25 04:50:00,
2013-06-24 22:00:00,58.4,57.0,29.71,ESE,113,0.0,0.0,95,0.00,RA,,0.32,WeatherDisplay:10.37,2013-06-25 05:00:00,
2013-06-24 22:05:00,58.3,56.6,29.71,SE,144,0.0,0.0,94,0.00,RA,,0.32,WeatherDisplay:10.37,2013-06-25 05:05:00,
2013-06-24 22:10:00,58.3,56.6,29.71,South,174,0.0,0.0,94,0.01,RA,,0.33,WeatherDisplay:10.37,2013-06-25 05:10:00,
2013-06-24 22:20:00,58.2,56.2,29.71,SE,146,0.0,0.0,93,0.00,RA,,0.33,WeatherDisplay:10.37,2013-06-25 05:20:00,
2013-06-24 22:30:00,58.1,56.4,29.71,ENE,76,0.0,0.0,94,0.00,RA,,0.33,WeatherDisplay:10.37,2013-06-25 05:30:00,
2013-06-24 22:40:00,57.9,56.5,29.71,ENE,62,0.0,0.0,95,0.00,RA,,0.33,WeatherDisplay:10.37,2013-06-25 05:40:00,
2013-06-24 22:50:00,57.8,56.4,29.71,ENE,62,0.0,0.0,95,0.00,RA,,0.33,WeatherDisplay:10.37,2013-06-25 05:50:00,
2013-06-24 23:00:00,57.5,56.1,29.70,ENE,62,0.0,0.0,95,0.00,RA,,0.33,WeatherDisplay:10.37,2013-06-25 06:00:00,
2013-06-24 23:05:00,57.4,56.3,29.70,ENE,63,0.0,0.0,96,0.00,RA,,0.33,WeatherDisplay:10.37,2013-06-25 06:05:00,
2013-06-24 23:10:00,57.2,56.1,29.70,ENE,63,0.0,0.0,96,0.00,RA,,0.33,WeatherDisplay:10.37,2013-06-25 06:10:00,
2013-06-24 23:20:00,57.0,55.9,29.70,SW,231,0.0,0.0,96,0.00,RA,,0.33,WeatherDisplay:10.37,2013-06-25 06:20:00,
2013-06-24 23:30:00,56.9,56.1,29.70,WSW,253,0.0,0.0,97,0.00,RA,,0.33,WeatherDisplay:10.37,2013-06-25 06:30:00,
2013-06-24 23:40:00,56.7,55.9,29.70,WSW,253,0.0,0.0,97,0.00,RA,,0.33,WeatherDisplay:10.37,2013-06-25 06:40:00,
2013-06-24 23:50:00,56.4,55.5,29.70,WSW,253,0.0,0.0,97,0.00,RA,,0.33,WeatherDisplay:10.37,2013-06-25 06:50:00,